Tuzla, Bosnia and Herzegovina
Current Conditions -  °F | °C
As of 9:00 PM on Friday 31 Oct 2014 (Local Time) from LQTZ Reporting Station
Broken Clouds Broken Clouds  
Wind Chill: 46°   Ceiling: 3500
Heat Index: 46°   Visibility: 4mi
Dew Point: 45°   Wind: 2mph
Humidity: 93%   Direction: NA
Pressure: 30.33"   Gusts: NA
Location:  44.54°N, 18.68°E
Report Text: LQTZ 311900Z VRB02KT 7000 BKN035 08/07 Q1027
Loading
Personal Weather Stations






























Interactive Weather Map
Tropical Storm Tracking
New forecast layout! Learn more

10-Day Weather Forecast

Advertisements
Track Severe Weather on mobile